Time;durP1;ratioP1;P1;durP2;ratioP2;P2;SDS_P1;SDS_P2;PMS_P1;PMS_P2;Temp;Humidity;BMP_temperature;BMP_pressure;BME280_temperature;BME280_humidity;BME280_pressure;Samples;Min_cycle;Max_cycle;Signal;HPM_P1;HPM_P2
2023/08/12 00:02:18;;;;;;;11.10;6.13;;;20.40;99.90;;;;;;5023437;28;20049;-50
2023/08/12 00:04:46;;;;;;;9.18;6.07;;;20.40;99.90;;;;;;5021419;28;20465;-46
2023/08/12 00:07:15;;;;;;;7.80;6.03;;;20.30;99.90;;;;;;5026449;28;20123;-46
2023/08/12 00:09:42;;;;;;;8.00;6.10;;;20.40;99.90;;;;;;5024461;28;20136;-45
2023/08/12 00:12:10;;;;;;;8.35;6.03;;;20.30;99.90;;;;;;5022980;28;20057;-49
2023/08/12 00:14:37;;;;;;;8.88;5.95;;;20.30;99.90;;;;;;5026405;28;20400;-47
2023/08/12 00:17:04;;;;;;;9.38;6.40;;;20.30;99.90;;;;;;5022519;28;20132;-44
2023/08/12 00:19:32;;;;;;;8.25;5.82;;;20.20;99.90;;;;;;5023844;28;20045;-47
2023/08/12 00:21:59;;;;;;;7.57;6.18;;;20.20;99.90;;;;;;5021959;28;20068;-51
2023/08/12 00:24:26;;;;;;;6.95;6.25;;;20.20;99.90;;;;;;5025902;28;20115;-46
2023/08/12 00:26:54;;;;;;;8.30;6.07;;;20.10;99.90;;;;;;5020974;28;20048;-44
2023/08/12 00:29:23;;;;;;;7.32;6.25;;;20.10;99.90;;;;;;5023927;28;20041;-44
2023/08/12 00:31:50;;;;;;;9.65;6.40;;;20.10;99.90;;;;;;5022935;28;20045;-49
2023/08/12 00:34:17;;;;;;;7.25;6.28;;;20.10;99.90;;;;;;5022722;28;20048;-50
2023/08/12 00:36:45;;;;;;;9.70;5.30;;;20.00;99.90;;;;;;5023841;28;20037;-44
2023/08/12 00:39:13;;;;;;;8.80;6.35;;;20.00;99.90;;;;;;5023247;28;20059;-48
2023/08/12 00:41:41;;;;;;;6.65;5.65;;;20.00;99.90;;;;;;5020163;28;20127;-54
2023/08/12 00:44:08;;;;;;;8.68;6.28;;;20.00;99.90;;;;;;5024983;28;20056;-46
2023/08/12 00:46:38;;;;;;;8.45;6.50;;;19.90;99.90;;;;;;5026432;28;20226;-50
2023/08/12 00:49:05;;;;;;;8.70;5.90;;;19.90;99.90;;;;;;5023497;28;20179;-49
2023/08/12 00:51:33;;;;;;;7.35;6.00;;;19.90;99.90;;;;;;5019281;28;20045;-46
2023/08/12 00:54:06;;;;;;;6.88;5.60;;;19.90;99.90;;;;;;5021118;28;20041;-49
2023/08/12 00:56:35;;;;;;;7.38;5.90;;;19.80;99.90;;;;;;5021424;28;20057;-46
2023/08/12 00:59:07;;;;;;;9.35;5.90;;;19.80;99.90;;;;;;5020120;28;20125;-50
2023/08/12 01:01:35;;;;;;;6.47;5.60;;;19.80;99.90;;;;;;5020333;28;20060;-51
2023/08/12 01:04:02;;;;;;;9.65;6.40;;;19.70;99.90;;;;;;5019767;28;20061;-52
2023/08/12 01:06:31;;;;;;;8.27;5.80;;;19.60;99.90;;;;;;5025443;28;20133;-44
2023/08/12 01:08:58;;;;;;;5.95;5.25;;;19.60;99.90;;;;;;5019187;28;20045;-47
2023/08/12 01:11:57;;;;;;;8.40;5.88;;;19.60;99.90;;;;;;5023851;28;20198;-47
2023/08/12 01:14:33;;;;;;;6.43;5.80;;;19.60;99.90;;;;;;5025233;28;20045;-46
2023/08/12 01:17:05;;;;;;;6.07;5.30;;;19.50;99.90;;;;;;5025513;28;20061;-49
2023/08/12 01:19:35;;;;;;;7.90;5.95;;;19.40;99.90;;;;;;5024782;28;20411;-45
2023/08/12 01:22:04;;;;;;;7.88;5.57;;;19.40;99.90;;;;;;5027078;28;20041;-47
2023/08/12 01:24:39;;;;;;;7.35;5.80;;;19.40;99.90;;;;;;5025813;28;20058;-55
2023/08/12 01:27:08;;;;;;;7.30;5.55;;;19.40;99.90;;;;;;5024345;28;20046;-46
2023/08/12 01:29:42;;;;;;;7.18;6.00;;;19.40;99.90;;;;;;5027044;28;20045;-43
2023/08/12 01:32:37;;;;;;;10.00;5.88;;;19.40;99.90;;;;;;5026849;28;20046;-46
2023/08/12 01:35:17;;;;;;;5.88;5.28;;;19.30;99.90;;;;;;5025521;28;20048;-44
2023/08/12 01:37:47;;;;;;;7.70;5.93;;;19.30;99.90;;;;;;5025721;28;20045;-52
2023/08/12 01:40:15;;;;;;;5.90;5.30;;;19.30;99.90;;;;;;5027263;28;20437;-48
2023/08/12 01:42:44;;;;;;;7.13;5.80;;;19.30;99.90;;;;;;5023281;28;20045;-48
2023/08/12 01:45:14;;;;;;;8.95;7.35;;;19.20;99.90;;;;;;5025513;28;20099;-49
2023/08/12 01:47:45;;;;;;;10.10;6.93;;;19.30;99.90;;;;;;5025046;28;20596;-47
2023/08/12 01:50:12;;;;;;;8.90;6.37;;;19.20;99.90;;;;;;5027362;28;20040;-46
2023/08/12 01:52:40;;;;;;;8.23;7.05;;;19.20;99.90;;;;;;5025977;28;20069;-48
2023/08/12 01:55:08;;;;;;;6.72;5.90;;;19.10;99.90;;;;;;5025513;28;20745;-52
2023/08/12 01:57:35;;;;;;;8.00;6.35;;;19.10;99.90;;;;;;5027013;28;20052;-46
2023/08/12 02:00:06;;;;;;;6.82;5.50;;;19.10;99.90;;;;;;5024381;28;20049;-51
2023/08/12 02:02:46;;;;;;;7.45;5.50;;;19.10;99.90;;;;;;5027064;28;20077;-47
2023/08/12 02:05:15;;;;;;;6.47;5.50;;;19.10;99.90;;;;;;5024287;28;20340;-43
2023/08/12 02:07:42;;;;;;;8.65;6.00;;;19.10;99.90;;;;;;5025304;28;20053;-50
2023/08/12 02:10:10;;;;;;;7.20;5.40;;;19.10;99.90;;;;;;5025590;28;20038;-43
2023/08/12 02:12:37;;;;;;;7.00;5.70;;;19.10;99.90;;;;;;5020609;28;20045;-45
2023/08/12 02:15:06;;;;;;;7.03;5.45;;;19.00;99.90;;;;;;5025699;28;20048;-49
2023/08/12 02:17:33;;;;;;;7.15;5.45;;;19.00;99.90;;;;;;5026022;28;20041;-45
2023/08/12 02:20:01;;;;;;;7.85;5.85;;;19.00;99.90;;;;;;5026555;28;20073;-50
2023/08/12 02:22:30;;;;;;;8.02;5.80;;;19.00;99.90;;;;;;5024716;28;20068;-49
2023/08/12 02:24:57;;;;;;;6.25;5.65;;;19.00;99.90;;;;;;5021204;28;20041;-47
2023/08/12 02:27:25;;;;;;;8.00;5.90;;;19.00;99.90;;;;;;5024537;28;20434;-51
2023/08/12 02:29:52;;;;;;;8.40;5.57;;;19.00;99.90;;;;;;5027309;28;20046;-47
2023/08/12 02:32:20;;;;;;;9.23;5.60;;;18.90;99.90;;;;;;5022631;28;20041;-48
2023/08/12 02:34:48;;;;;;;8.65;5.90;;;19.00;99.90;;;;;;5025127;28;20510;-50
2023/08/12 02:37:15;;;;;;;7.82;5.38;;;18.90;99.90;;;;;;5022243;28;20041;-51
2023/08/12 02:39:42;;;;;;;6.90;5.85;;;19.00;99.90;;;;;;5026465;28;20520;-48
2023/08/12 02:42:10;;;;;;;6.63;5.32;;;19.00;99.90;;;;;;5024494;28;20053;-50
2023/08/12 02:44:37;;;;;;;7.57;5.43;;;19.00;99.90;;;;;;5024691;28;20115;-52
2023/08/12 02:47:05;;;;;;;7.82;5.85;;;18.90;99.90;;;;;;5025691;28;20500;-54
2023/08/12 02:49:33;;;;;;;7.85;5.57;;;18.90;99.90;;;;;;5020150;28;20499;-52
2023/08/12 02:52:00;;;;;;;8.45;5.47;;;18.90;99.90;;;;;;5025444;28;20041;-50
2023/08/12 02:54:28;;;;;;;8.75;5.82;;;18.80;99.90;;;;;;5024851;28;20041;-49
2023/08/12 02:56:55;;;;;;;6.07;5.47;;;18.80;99.90;;;;;;5023724;28;20120;-42
2023/08/12 02:59:24;;;;;;;7.38;5.68;;;18.70;99.90;;;;;;5025728;28;20057;-50
2023/08/12 03:01:52;;;;;;;7.38;5.55;;;18.80;99.90;;;;;;5025524;28;20045;-48
2023/08/12 03:04:20;;;;;;;8.05;6.07;;;18.70;99.90;;;;;;5025976;28;20053;-48
2023/08/12 03:06:47;;;;;;;10.77;6.13;;;18.70;99.90;;;;;;5025879;28;20049;-47
2023/08/12 03:09:15;;;;;;;11.27;6.53;;;18.70;99.90;;;;;;5025552;28;20065;-47
2023/08/12 03:11:44;;;;;;;9.63;6.25;;;18.70;99.90;;;;;;5024431;28;20132;-52
2023/08/12 03:14:12;;;;;;;11.80;6.93;;;18.80;99.90;;;;;;5026769;28;20042;-48
2023/08/12 03:16:39;;;;;;;11.73;6.50;;;18.70;99.90;;;;;;5029621;28;20052;-46
2023/08/12 03:19:07;;;;;;;15.75;6.97;;;18.70;99.90;;;;;;5018987;28;20038;-49
2023/08/12 03:21:35;;;;;;;9.73;6.28;;;18.80;99.90;;;;;;5025140;28;20342;-48
2023/08/12 03:24:03;;;;;;;9.20;5.97;;;18.70;99.90;;;;;;5027252;28;20105;-47
2023/08/12 03:26:31;;;;;;;12.93;6.22;;;18.70;99.90;;;;;;5030007;28;20088;-47
2023/08/12 03:28:58;;;;;;;9.48;6.30;;;18.80;99.90;;;;;;5026834;28;20222;-47
2023/08/12 03:31:27;;;;;;;10.63;7.25;;;18.80;99.90;;;;;;5026234;28;20052;-50
2023/08/12 03:33:54;;;;;;;7.88;6.13;;;18.70;99.90;;;;;;5025170;28;20513;-46
2023/08/12 03:36:22;;;;;;;10.05;6.43;;;18.70;99.90;;;;;;5024851;28;20414;-48
2023/08/12 03:38:49;;;;;;;8.07;5.65;;;18.70;99.90;;;;;;5028360;28;20033;-53
2023/08/12 03:41:22;;;;;;;11.25;6.55;;;18.70;99.90;;;;;;5027234;28;20056;-44
2023/08/12 03:43:51;;;;;;;10.63;5.85;;;18.70;99.90;;;;;;5024003;28;20045;-44
2023/08/12 03:46:19;;;;;;;8.20;5.95;;;18.70;99.90;;;;;;5030581;28;20081;-44
2023/08/12 03:48:46;;;;;;;10.00;6.03;;;18.70;99.90;;;;;;5028395;28;20054;-49
2023/08/12 03:51:14;;;;;;;11.18;6.57;;;18.70;99.90;;;;;;5029402;28;20067;-46
2023/08/12 03:53:41;;;;;;;9.52;6.38;;;18.60;99.90;;;;;;5027303;28;20229;-52
2023/08/12 03:56:09;;;;;;;7.70;5.75;;;18.70;99.90;;;;;;5026052;28;20061;-45
2023/08/12 03:58:36;;;;;;;6.75;5.38;;;18.60;99.90;;;;;;5026885;28;20056;-48
2023/08/12 04:01:04;;;;;;;9.63;5.93;;;18.70;99.90;;;;;;5024683;28;20055;-49
2023/08/12 04:03:31;;;;;;;10.35;6.28;;;18.70;99.90;;;;;;5011388;28;20049;-46
2023/08/12 04:05:59;;;;;;;7.80;5.68;;;18.70;99.90;;;;;;5028177;28;20056;-45
2023/08/12 04:08:28;;;;;;;8.30;5.63;;;18.70;99.90;;;;;;5029380;28;20076;-45
2023/08/12 04:10:55;;;;;;;7.57;5.40;;;18.70;99.90;;;;;;5024470;28;20060;-45
2023/08/12 04:13:24;;;;;;;10.45;5.43;;;18.70;99.90;;;;;;5029563;28;20049;-48
2023/08/12 04:15:55;;;;;;;10.60;5.78;;;18.70;99.90;;;;;;5028174;28;20042;-46
2023/08/12 04:18:25;;;;;;;9.45;5.55;;;18.80;99.90;;;;;;5042651;28;20071;-48
2023/08/12 04:20:53;;;;;;;8.70;5.55;;;18.80;99.90;;;;;;5026931;28;20116;-47
2023/08/12 04:23:21;;;;;;;7.45;5.40;;;18.80;99.90;;;;;;5029092;28;20060;-46
2023/08/12 04:25:49;;;;;;;7.97;5.13;;;18.90;99.90;;;;;;5027383;28;20065;-50
2023/08/12 04:28:18;;;;;;;7.30;5.15;;;18.90;99.90;;;;;;5010405;28;20053;-52
2023/08/12 04:30:52;;;;;;;9.13;5.50;;;18.90;99.90;;;;;;5026701;28;20046;-46
2023/08/12 04:33:22;;;;;;;8.02;5.95;;;18.90;99.90;;;;;;5024476;28;20510;-46
2023/08/12 04:35:52;;;;;;;10.02;6.13;;;18.90;99.90;;;;;;5024150;28;20134;-48
2023/08/12 04:38:22;;;;;;;8.38;5.85;;;19.00;99.90;;;;;;5027132;28;20494;-45
2023/08/12 04:40:54;;;;;;;8.10;6.28;;;19.00;99.90;;;;;;5024948;28;20516;-45
2023/08/12 04:43:22;;;;;;;10.23;6.60;;;19.10;99.90;;;;;;5026131;28;20049;-50
2023/08/12 04:45:49;;;;;;;9.48;6.47;;;19.20;99.90;;;;;;5026441;28;20042;-46
2023/08/12 04:48:19;;;;;;;8.80;6.72;;;19.20;99.90;;;;;;5024815;28;20084;-48
2023/08/12 04:50:46;;;;;;;7.13;5.63;;;19.30;99.90;;;;;;5027900;28;20136;-47
2023/08/12 04:53:16;;;;;;;8.68;6.18;;;19.30;99.90;;;;;;5028980;28;20421;-50
2023/08/12 04:55:44;;;;;;;9.23;5.60;;;19.40;99.90;;;;;;5025557;28;20060;-49
2023/08/12 04:58:15;;;;;;;14.07;10.23;;;19.50;99.90;;;;;;5027273;28;20462;-46
2023/08/12 05:00:42;;;;;;;11.00;8.18;;;19.50;99.90;;;;;;5022462;28;20532;-45
2023/08/12 05:03:11;;;;;;;12.27;9.25;;;19.50;99.90;;;;;;5027430;28;20059;-48
2023/08/12 05:05:39;;;;;;;11.02;8.73;;;19.50;99.90;;;;;;5026145;28;20115;-56
2023/08/12 05:08:07;;;;;;;9.25;7.20;;;19.60;99.90;;;;;;5022698;28;20506;-44
2023/08/12 05:10:36;;;;;;;8.75;6.10;;;19.70;99.90;;;;;;5026337;28;20045;-52
2023/08/12 05:13:03;;;;;;;9.75;6.00;;;19.70;99.90;;;;;;5026401;28;20045;-47
2023/08/12 05:15:30;;;;;;;6.65;5.60;;;19.70;99.90;;;;;;5026927;28;20133;-47
2023/08/12 05:17:58;;;;;;;8.20;5.30;;;19.70;99.90;;;;;;5010288;28;20049;-46
2023/08/12 05:20:27;;;;;;;6.15;4.90;;;19.80;99.90;;;;;;5026470;28;20321;-46
2023/08/12 05:22:55;;;;;;;7.63;5.28;;;19.80;99.90;;;;;;5028943;28;20041;-49
2023/08/12 05:25:23;;;;;;;7.35;5.13;;;19.80;99.90;;;;;;5023426;28;20049;-50
2023/08/12 05:27:50;;;;;;;5.97;5.25;;;19.90;99.90;;;;;;5021510;28;20336;-46
2023/08/12 05:30:17;;;;;;;8.48;5.68;;;20.00;99.90;;;;;;5024576;28;20080;-49
2023/08/12 05:32:45;;;;;;;7.28;5.97;;;20.00;99.90;;;;;;5026079;28;20049;-49
2023/08/12 05:35:12;;;;;;;7.60;6.80;;;20.00;99.90;;;;;;5025943;28;20042;-47
2023/08/12 05:37:39;;;;;;;12.38;7.03;;;20.10;99.90;;;;;;5026875;28;20046;-46
2023/08/12 05:40:09;;;;;;;9.23;7.90;;;20.20;99.90;;;;;;5025704;28;20121;-53
2023/08/12 05:42:37;;;;;;;9.68;6.70;;;20.30;99.90;;;;;;5026850;28;20050;-46
2023/08/12 05:45:05;;;;;;;9.15;6.13;;;20.50;99.90;;;;;;5024362;28;20356;-53
2023/08/12 05:47:35;;;;;;;7.78;5.93;;;20.70;99.90;;;;;;5024174;28;20065;-49
2023/08/12 05:50:02;;;;;;;7.03;5.55;;;20.90;99.90;;;;;;5021212;28;20045;-49
2023/08/12 05:52:30;;;;;;;7.22;5.38;;;21.10;99.90;;;;;;5024999;28;20045;-53
2023/08/12 05:54:57;;;;;;;8.68;5.25;;;21.30;99.90;;;;;;5021855;28;20113;-51
2023/08/12 05:57:25;;;;;;;6.30;5.35;;;21.40;99.90;;;;;;5024320;28;20494;-50
2023/08/12 05:59:55;;;;;;;6.78;5.10;;;21.50;99.90;;;;;;5020275;28;20426;-51
2023/08/12 06:02:23;;;;;;;7.75;5.75;;;21.60;99.90;;;;;;5021462;28;20048;-45
2023/08/12 06:04:50;;;;;;;7.82;5.63;;;21.60;99.90;;;;;;5019771;28;20454;-45
2023/08/12 06:07:18;;;;;;;6.75;5.18;;;21.70;99.90;;;;;;5024515;28;20053;-49
2023/08/12 06:09:45;;;;;;;6.28;5.25;;;21.70;99.90;;;;;;5020462;28;20055;-44
2023/08/12 06:12:13;;;;;;;5.85;5.13;;;21.80;99.90;;;;;;5021745;28;20050;-46
2023/08/12 06:14:41;;;;;;;6.00;5.30;;;21.80;99.90;;;;;;5026358;28;20054;-45
2023/08/12 06:17:08;;;;;;;7.95;5.80;;;21.90;99.90;;;;;;5020829;28;20064;-50
2023/08/12 06:19:35;;;;;;;5.93;5.32;;;22.00;99.90;;;;;;5021189;28;20044;-47
2023/08/12 06:22:03;;;;;;;8.75;5.55;;;22.00;99.90;;;;;;5023271;28;20060;-46
2023/08/12 06:24:30;;;;;;;6.95;5.40;;;22.10;99.90;;;;;;5022954;28;20080;-49
2023/08/12 06:26:58;;;;;;;8.02;5.05;;;22.10;99.90;;;;;;5024071;28;20060;-49
2023/08/12 06:29:25;;;;;;;9.52;7.47;;;22.30;99.90;;;;;;5026858;28;20549;-49
2023/08/12 06:31:53;;;;;;;10.55;8.02;;;22.40;99.90;;;;;;5022726;28;20041;-53
2023/08/12 06:34:20;;;;;;;11.73;8.05;;;22.50;99.90;;;;;;5024085;28;20053;-51
2023/08/12 06:36:48;;;;;;;11.15;8.68;;;22.60;99.90;;;;;;5021377;28;20042;-44
2023/08/12 06:39:15;;;;;;;9.15;7.32;;;22.80;99.90;;;;;;5023716;28;20046;-47
2023/08/12 06:41:43;;;;;;;9.40;6.55;;;22.90;99.90;;;;;;5023807;28;20433;-51
2023/08/12 06:44:11;;;;;;;9.02;6.25;;;23.00;99.90;;;;;;5021682;28;20484;-49
2023/08/12 06:46:38;;;;;;;7.55;5.55;;;23.10;99.90;;;;;;5022347;28;20049;-49
2023/08/12 06:49:06;;;;;;;6.00;5.40;;;23.30;99.90;;;;;;5021356;28;20046;-51
2023/08/12 06:51:34;;;;;;;8.98;5.90;;;23.40;99.90;;;;;;5025366;28;20053;-44
2023/08/12 06:54:01;;;;;;;7.15;5.45;;;23.50;99.90;;;;;;5026495;28;20525;-45
2023/08/12 06:56:29;;;;;;;6.90;5.75;;;23.60;99.90;;;;;;5033383;28;20119;-47
2023/08/12 06:58:56;;;;;;;6.30;5.47;;;23.70;99.90;;;;;;5038031;28;20042;-54
2023/08/12 07:01:23;;;;;;;7.20;6.22;;;23.80;99.90;;;;;;5038504;28;20429;-47
2023/08/12 07:03:51;;;;;;;6.88;5.97;;;24.00;99.90;;;;;;5038626;28;20045;-48
2023/08/12 07:06:18;;;;;;;7.38;6.50;;;24.10;99.90;;;;;;5038455;28;20045;-43
2023/08/12 07:08:45;;;;;;;7.80;5.85;;;24.30;99.90;;;;;;5041215;28;20114;-51
2023/08/12 07:11:13;;;;;;;6.68;6.07;;;24.30;99.90;;;;;;5027763;28;20125;-45
2023/08/12 07:13:41;;;;;;;9.13;6.28;;;24.50;99.90;;;;;;5024799;28;20306;-48
2023/08/12 07:16:09;;;;;;;7.68;6.03;;;24.80;99.90;;;;;;5025357;28;20498;-50
2023/08/12 07:18:36;;;;;;;10.27;7.50;;;24.90;99.90;;;;;;5024907;28;20042;-47
2023/08/12 07:21:04;;;;;;;8.65;6.90;;;25.10;99.90;;;;;;5026429;28;20580;-46
2023/08/12 07:23:31;;;;;;;7.05;6.35;;;25.10;99.90;;;;;;5023721;28;20434;-47
2023/08/12 07:25:58;;;;;;;6.55;5.90;;;25.10;99.90;;;;;;5024124;28;20752;-45
2023/08/12 07:28:26;;;;;;;7.55;6.57;;;25.30;99.90;;;;;;5027731;28;20152;-50
2023/08/12 07:30:53;;;;;;;7.18;6.47;;;25.30;99.90;;;;;;5022935;28;20116;-45
2023/08/12 07:33:21;;;;;;;6.88;6.18;;;25.40;99.90;;;;;;5022218;28;20495;-44
2023/08/12 07:35:48;;;;;;;7.35;6.65;;;25.50;99.90;;;;;;5021034;28;20502;-50
2023/08/12 07:38:16;;;;;;;6.43;5.82;;;25.70;99.90;;;;;;5021596;28;20045;-44
2023/08/12 07:40:43;;;;;;;7.03;6.07;;;25.80;99.90;;;;;;5021727;28;20132;-52
2023/08/12 07:43:10;;;;;;;7.05;6.30;;;25.70;99.90;;;;;;5023193;28;20134;-51
2023/08/12 07:45:38;;;;;;;6.43;5.82;;;25.70;99.90;;;;;;5025318;28;20105;-44
2023/08/12 07:48:05;;;;;;;7.00;6.30;;;25.70;99.90;;;;;;5023213;28;20038;-45
2023/08/12 07:50:33;;;;;;;6.93;6.22;;;26.00;99.90;;;;;;5022323;28;20057;-45
2023/08/12 07:53:00;;;;;;;9.10;7.47;;;26.10;99.90;;;;;;5023999;28;20116;-45
2023/08/12 07:55:28;;;;;;;10.48;9.32;;;26.40;99.90;;;;;;5024817;28;20045;-49
2023/08/12 07:57:55;;;;;;;8.70;7.47;;;26.50;99.90;;;;;;5021875;28;20049;-47
2023/08/12 08:00:23;;;;;;;7.32;6.63;;;26.80;99.90;;;;;;5022444;28;20426;-49
2023/08/12 08:02:50;;;;;;;7.30;6.60;;;27.00;99.90;;;;;;5024050;28;20107;-46
2023/08/12 08:05:17;;;;;;;7.80;6.53;;;27.00;99.90;;;;;;5025805;28;20041;-44
2023/08/12 08:07:45;;;;;;;7.45;6.28;;;27.10;99.90;;;;;;5021527;28;20041;-44
2023/08/12 08:10:12;;;;;;;7.68;6.15;;;27.20;99.90;;;;;;5021762;28;20050;-49
2023/08/12 08:12:39;;;;;;;7.57;6.38;;;27.10;99.90;;;;;;5021616;28;20036;-51
2023/08/12 08:15:07;;;;;;;6.88;6.22;;;27.00;99.90;;;;;;5022463;28;20466;-47
2023/08/12 08:17:34;;;;;;;6.40;5.53;;;26.90;99.90;;;;;;5025148;28;20136;-44
2023/08/12 08:20:06;;;;;;;6.00;5.40;;;26.50;99.90;;;;;;5022740;28;20041;-47
2023/08/12 08:22:33;;;;;;;6.20;5.60;;;26.30;99.90;;;;;;5025282;28;20045;-51
2023/08/12 08:25:01;;;;;;;6.20;5.60;;;26.30;99.90;;;;;;5021040;28;20048;-47
2023/08/12 08:27:28;;;;;;;6.68;5.78;;;26.60;99.90;;;;;;5024630;28;20051;-48
2023/08/12 08:29:55;;;;;;;6.80;6.10;;;26.80;99.90;;;;;;5021741;28;20054;-46
2023/08/12 08:32:23;;;;;;;10.80;7.43;;;27.00;99.90;;;;;;5021744;28;20510;-50
2023/08/12 08:34:50;;;;;;;9.70;6.47;;;27.40;99.90;;;;;;5028945;28;20050;-55
2023/08/12 08:37:17;;;;;;;8.07;6.30;;;27.50;99.90;;;;;;5024954;28;20073;-48
2023/08/12 08:39:44;;;;;;;6.88;6.25;;;27.70;99.90;;;;;;5027069;28;20084;-49
2023/08/12 08:42:14;;;;;;;6.90;6.30;;;28.00;99.90;;;;;;5026053;28;20056;-45
2023/08/12 08:44:43;;;;;;;5.97;5.38;;;28.10;99.90;;;;;;5028825;28;20107;-45
2023/08/12 08:47:12;;;;;;;7.20;6.50;;;28.10;99.90;;;;;;5027500;28;20045;-50
2023/08/12 08:49:41;;;;;;;6.22;5.55;;;28.10;99.90;;;;;;5026704;28;20049;-48
2023/08/12 08:52:08;;;;;;;7.13;6.00;;;28.10;99.90;;;;;;5026471;28;20040;-46
2023/08/12 08:54:37;;;;;;;6.38;5.78;;;27.90;99.90;;;;;;5025593;28;20048;-48
2023/08/12 08:57:06;;;;;;;6.15;5.55;;;27.60;99.90;;;;;;5025961;28;20045;-47
2023/08/12 08:59:40;;;;;;;6.30;5.53;;;27.50;99.90;;;;;;5027747;28;20072;-44
2023/08/12 09:02:15;;;;;;;6.65;5.72;;;27.50;99.90;;;;;;5026685;28;20053;-51
2023/08/12 09:04:46;;;;;;;6.20;5.60;;;27.50;99.90;;;;;;5020944;28;20104;-49
2023/08/12 09:07:14;;;;;;;6.53;5.93;;;27.80;99.90;;;;;;5025498;28;20472;-49
2023/08/12 09:09:52;;;;;;;6.30;5.70;;;28.10;99.90;;;;;;5026394;28;20144;-49
2023/08/12 09:12:20;;;;;;;7.00;6.40;;;28.10;99.90;;;;;;5026652;28;20041;-46
2023/08/12 09:14:48;;;;;;;7.00;5.53;;;27.90;99.90;;;;;;5026621;28;20042;-51
2023/08/12 09:17:16;;;;;;;7.35;6.40;;;28.20;99.90;;;;;;5023695;28;20069;-49
2023/08/12 09:19:43;;;;;;;6.30;5.70;;;28.00;99.90;;;;;;5027290;28;20049;-49
2023/08/12 09:22:11;;;;;;;6.43;5.82;;;27.80;99.90;;;;;;5028631;28;20045;-46
2023/08/12 09:24:39;;;;;;;6.82;6.22;;;27.80;99.90;;;;;;5028351;28;20057;-48
2023/08/12 09:27:06;;;;;;;6.22;5.60;;;28.10;99.90;;;;;;5027792;28;20077;-46
2023/08/12 09:29:35;;;;;;;8.48;6.13;;;28.40;99.90;;;;;;5023375;28;20060;-50
2023/08/12 09:32:13;;;;;;;6.90;6.13;;;28.40;99.90;;;;;;5026517;28;20128;-47
2023/08/12 09:34:48;;;;;;;6.85;5.65;;;28.30;99.90;;;;;;5022101;28;20053;-49
2023/08/12 09:37:16;;;;;;;7.55;5.90;;;28.20;99.90;;;;;;5021086;28;20045;-47
2023/08/12 09:39:44;;;;;;;6.70;5.95;;;27.80;99.90;;;;;;5022394;28;20107;-49
2023/08/12 09:42:12;;;;;;;7.07;5.80;;;27.80;99.90;;;;;;5024623;28;20263;-44
2023/08/12 09:44:41;;;;;;;5.68;5.05;;;27.80;99.90;;;;;;5022649;28;20069;-46
2023/08/12 09:47:08;;;;;;;7.00;6.32;;;27.80;99.90;;;;;;5022799;28;20046;-46
2023/08/12 09:49:37;;;;;;;7.38;6.07;;;28.00;99.90;;;;;;5024824;28;20049;-47
2023/08/12 09:52:06;;;;;;;7.32;6.25;;;28.20;99.90;;;;;;5021783;28;20104;-50
2023/08/12 09:54:34;;;;;;;7.22;6.05;;;28.40;99.90;;;;;;5025340;28;20103;-48
2023/08/12 09:57:06;;;;;;;6.80;6.15;;;28.60;99.90;;;;;;5021926;28;20503;-47
2023/08/12 09:59:35;;;;;;;;;;;29.00;99.90;;;;;;5021766;28;20045;-48
2023/08/12 10:02:05;;;;;;;8.85;5.85;;;29.00;99.90;;;;;;5024420;28;19957;-47
2023/08/12 10:04:45;;;;;;;7.15;5.93;;;29.10;99.90;;;;;;5020292;28;20132;-49
2023/08/12 10:07:12;;;;;;;6.90;6.30;;;29.40;99.90;;;;;;5025109;28;20056;-46
2023/08/12 10:09:40;;;;;;;6.32;5.75;;;29.40;99.90;;;;;;5025095;28;20060;-50
2023/08/12 10:12:08;;;;;;;7.20;5.75;;;29.50;99.90;;;;;;5020596;28;20523;-52
2023/08/12 10:14:38;;;;;;;7.00;6.28;;;29.50;99.90;;;;;;5020123;28;20095;-47
2023/08/12 10:17:05;;;;;;;6.35;5.75;;;29.70;99.90;;;;;;5019481;28;20091;-53
2023/08/12 10:19:34;;;;;;;6.72;6.05;;;29.70;99.90;;;;;;5024193;28;20054;-54
2023/08/12 10:22:03;;;;;;;6.53;5.95;;;29.60;99.90;;;;;;5017569;28;20124;-52
2023/08/12 10:24:33;;;;;;;6.47;5.88;;;29.60;99.90;;;;;;5025353;28;20405;-48
2023/08/12 10:27:01;;;;;;;7.07;6.47;;;29.40;99.90;;;;;;5025261;28;20112;-46
2023/08/12 10:29:30;;;;;;;7.45;6.60;;;29.50;99.90;;;;;;5024361;28;20135;-53
2023/08/12 10:31:58;;;;;;;6.80;6.15;;;29.70;99.90;;;;;;5026310;28;20540;-48
2023/08/12 10:34:25;;;;;;;6.65;6.13;;;29.70;99.90;;;;;;5029408;28;20061;-46
2023/08/12 10:37:00;;;;;;;7.07;6.47;;;29.80;99.90;;;;;;5026535;28;20685;-45
2023/08/12 10:39:34;;;;;;;8.55;7.30;;;29.90;99.90;;;;;;5027753;28;20573;-45
2023/08/12 10:42:01;;;;;;;;;;;30.40;99.90;;;;;;5026164;28;20149;-45
2023/08/12 10:44:54;;;;;;;7.25;6.43;;;31.10;99.90;;;;;;5028325;28;19925;-46
2023/08/12 10:47:21;;;;;;;7.63;6.32;;;31.60;99.90;;;;;;5024753;28;20083;-50
2023/08/12 10:49:50;;;;;;;8.35;7.53;;;32.00;99.90;;;;;;5026614;28;20099;-49
2023/08/12 10:52:28;;;;;;;9.98;9.00;;;32.20;99.90;;;;;;5025539;28;20045;-46
2023/08/12 10:55:19;;;;;;;9.00;8.20;;;31.90;99.90;;;;;;5025182;28;20271;-48
2023/08/12 10:57:46;;;;;;;8.05;6.75;;;31.80;99.90;;;;;;5025505;28;20057;-51
2023/08/12 11:00:22;;;;;;;8.05;7.35;;;32.00;99.90;;;;;;5028158;28;20053;-51
2023/08/12 11:02:52;;;;;;;8.05;7.22;;;32.00;99.90;;;;;;5038888;28;20033;-53
2023/08/12 11:05:20;;;;;;;7.50;6.90;;;32.00;99.90;;;;;;5033115;28;20578;-46
2023/08/12 11:08:00;;;;;;;7.38;6.68;;;31.50;99.90;;;;;;5024687;28;20049;-49
2023/08/12 11:10:32;;;;;;;8.10;7.30;;;31.70;99.90;;;;;;5026797;28;20053;-45
2023/08/12 11:13:02;;;;;;;7.75;6.70;;;31.40;99.90;;;;;;5021966;28;20048;-50
2023/08/12 11:15:43;;;;;;;8.20;7.50;;;31.50;99.90;;;;;;5028185;28;20053;-45
2023/08/12 11:18:20;;;;;;;10.02;6.80;;;32.00;99.90;;;;;;5024695;28;20073;-47
2023/08/12 11:20:49;;;;;;;8.38;7.10;;;31.90;99.90;;;;;;5023992;28;20060;-49
2023/08/12 11:23:16;;;;;;;7.18;6.57;;;31.40;99.90;;;;;;5029154;28;20126;-47
2023/08/12 11:25:45;;;;;;;7.72;6.93;;;31.80;99.90;;;;;;5028901;28;20053;-51
2023/08/12 11:28:13;;;;;;;7.60;6.80;;;32.20;99.90;;;;;;5029871;28;20057;-50
2023/08/12 11:30:42;;;;;;;8.25;6.82;;;32.50;99.90;;;;;;5032326;28;20509;-46
2023/08/12 11:33:10;;;;;;;10.57;9.15;;;32.90;99.90;;;;;;5030203;28;20049;-45
2023/08/12 11:35:38;;;;;;;12.30;10.00;;;33.30;99.90;;;;;;5023062;28;20048;-46
2023/08/12 11:38:06;;;;;;;7.80;7.10;;;33.70;99.90;;;;;;5024827;28;20109;-45
2023/08/12 11:40:34;;;;;;;7.35;6.60;;;34.20;99.90;;;;;;5025025;28;20526;-54
2023/08/12 11:43:02;;;;;;;7.20;6.57;;;34.20;99.90;;;;;;5021717;28;20510;-46
2023/08/12 11:45:33;;;;;;;7.40;6.65;;;34.20;99.90;;;;;;5025755;28;20418;-47
2023/08/12 11:48:00;;;;;;;8.75;6.25;;;34.20;99.90;;;;;;5021827;28;20152;-50
2023/08/12 11:50:28;;;;;;;7.22;6.55;;;34.50;99.90;;;;;;5025387;28;20133;-47
2023/08/12 11:52:58;;;;;;;8.82;6.82;;;34.10;99.90;;;;;;5021171;28;20149;-51
2023/08/12 11:55:26;;;;;;;7.63;6.57;;;34.00;99.90;;;;;;5022427;28;20050;-47
2023/08/12 11:57:53;;;;;;;6.85;6.25;;;34.00;99.90;;;;;;5021992;28;20057;-50
2023/08/12 12:00:20;;;;;;;7.75;7.05;;;33.30;99.90;;;;;;5022196;28;20076;-52
2023/08/12 12:02:53;;;;;;;7.40;6.70;;;32.90;99.90;;;;;;5020976;28;20057;-56
2023/08/12 12:05:23;;;;;;;7.68;6.80;;;33.50;99.90;;;;;;5023727;28;20552;-51
2023/08/12 12:07:52;;;;;;;9.07;6.78;;;34.30;99.90;;;;;;5022566;28;20046;-50
2023/08/12 12:10:25;;;;;;;7.55;6.85;;;34.20;99.90;;;;;;5026016;28;20049;-49
2023/08/12 12:12:56;;;;;;;7.50;6.80;;;33.90;99.90;;;;;;5023895;28;20057;-51
2023/08/12 12:15:23;;;;;;;8.05;6.75;;;34.30;99.90;;;;;;5024679;28;20045;-49
2023/08/12 12:17:51;;;;;;;7.60;6.80;;;34.50;99.90;;;;;;5022921;28;20048;-51
2023/08/12 12:20:20;;;;;;;11.20;9.63;;;34.90;99.90;;;;;;5024382;28;20700;-45
2023/08/12 12:22:48;;;;;;;8.95;7.53;;;35.50;99.90;;;;;;5024648;28;20422;-51
2023/08/12 12:25:19;;;;;;;7.60;6.90;;;35.80;99.00;;;;;;5025291;28;20586;-51
2023/08/12 12:27:47;;;;;;;7.97;7.20;;;36.60;97.90;;;;;;5025088;28;20053;-46
2023/08/12 12:30:16;;;;;;;7.68;6.97;;;36.80;96.50;;;;;;5023296;28;20054;-47
2023/08/12 12:32:44;;;;;;;8.80;7.90;;;37.40;95.60;;;;;;5025841;28;20528;-50
2023/08/12 12:35:12;;;;;;;7.70;6.88;;;38.00;94.40;;;;;;5021830;28;20515;-50
2023/08/12 12:37:40;;;;;;;9.23;6.90;;;38.60;93.00;;;;;;5025108;28;20455;-48
2023/08/12 12:40:08;;;;;;;7.90;7.20;;;38.60;91.30;;;;;;5022040;28;20053;-46
2023/08/12 12:42:35;;;;;;;7.97;6.57;;;39.10;90.50;;;;;;5026252;28;20041;-46
2023/08/12 12:45:03;;;;;;;7.72;6.85;;;39.00;88.70;;;;;;5025741;28;20512;-47
2023/08/12 12:47:30;;;;;;;8.40;6.88;;;39.30;87.80;;;;;;5023340;28;20053;-50
2023/08/12 12:49:58;;;;;;;7.60;6.85;;;39.50;87.20;;;;;;5021190;28;20049;-47
2023/08/12 12:52:25;;;;;;;6.70;6.10;;;39.40;85.00;;;;;;5024787;28;20057;-50
2023/08/12 12:54:52;;;;;;;7.40;6.80;;;38.50;85.70;;;;;;5024486;28;20080;-48